This is the latest recevied weather packets stored in our database for station/object AI9F. If no packets are shown the sender has not sent any weather packets the latest 10 day(s).
| Time | Temp. | Humidity | Pressure | Rain* | Wind** | Luminosity | Snow |
|---|---|---|---|---|---|---|---|
| 1777761819 | 16.11° C | 36% | 1018.6 hPa | 0 mm | - | 205 W/m² | - |
| 1777761215 | 15.56° C | 41% | 1018.6 hPa | 0 mm | - | 244 W/m² | - |
| 1777760912 | 15.56° C | 39% | 1018.5 hPa | 0 mm | - | 270 W/m² | - |
| 1777760002 | 15.56° C | 38% | 1018.5 hPa | 0 mm | - | 329 W/m² | - |
| 1777759395 | 15.56° C | 44% | 1018.4 hPa | 0 mm | - | 360 W/m² | - |
| 1777758486 | 15.56° C | 40% | 1018.5 hPa | 0 mm | - | 130 W/m² | - |
| 1777758183 | 16.11° C | 41% | 1018.3 hPa | 0 mm | - | 118 W/m² | - |
| 1777757880 | 15.56° C | 40% | 1018.6 hPa | 0 mm | - | 471 W/m² | - |
| 1777756974 | 15° C | 44% | 1018.4 hPa | 0 mm | - | 142 W/m² | - |
| 1777756064 | 14.44° C | 46% | 1018.4 hPa | 0 mm | - | 120 W/m² | - |
| 1777753644 | 15.56° C | 40% | 1018.8 hPa | 0 mm | - | 666 W/m² | - |
| 1777752432 | 14.44° C | 51% | 1018.9 hPa | 0 mm | - | 310 W/m² | - |
| 1777750613 | 15.56° C | 49% | 1018.9 hPa | 0 mm | - | 272 W/m² | - |
| 1777750005 | 14.44° C | 47% | 1019 hPa | 0 mm | - | 349 W/m² | - |
| 1777749703 | 13.33° C | 50% | 1019.2 hPa | 0 mm | - | 555 W/m² | - |
| 1777749400 | 13.33° C | 52% | 1019.2 hPa | 0 mm | - | 363 W/m² | - |
| 1777747580 | 12.78° C | 58% | 1019.5 hPa | 0 mm | - | 281 W/m² | - |
| 1777746972 | 12.22° C | 59% | 1019.5 hPa | 0 mm | - | 190 W/m² | - |
| 1777746363 | 12.22° C | 59% | 1019.4 hPa | 0 mm | - | 135 W/m² | - |
| 1777746059 | 12.22° C | 63% | 1019.5 hPa | 0 mm | - | 114 W/m² | - |
| 1777745757 | 12.22° C | 63% | 1019.3 hPa | 0 mm | - | 124 W/m² | - |
| 1777745456 | 12.78° C | 67% | 1019.5 hPa | 0 mm | - | 104 W/m² | - |
| 1777745152 | 12.78° C | 67% | 1019.3 hPa | 0 mm | - | 111 W/m² | - |
| 1777744849 | 13.33° C | 60% | 1019.4 hPa | 0 mm | - | 174 W/m² | - |
| 1777744543 | 13.33° C | 60% | 1019.6 hPa | 0 mm | - | 229 W/m² | - |
* Rain latest hour (hover to see other rain measurements)
** Current wind speed in m/s (hover to see current wind gust speed)